DTTG

Details ICAO DTTG (GAE)
Name GABES
Region Tunisia
Timezone Africa/Tunis (UTC+1.0)
Plans Departing 7
Arriving 3
Stats Elevation 26 ft / 8 m (AMSL)
Location 33.876922° 10.103326°
Runways 1
Magnetic Variation 2.220° E
Sunrise 2017-12-16 06:19:20 UTC / 2017-12-16 07:19:20 Local
Sunset 2017-12-16 16:13:51 UTC / 2017-12-16 17:13:51 Local
Advertisement - Login to hide

Runways

ID Width Length Bearing (true) Bearing (mag) Surface Threshold Offset Overrun Length
06 82 ft / 25 m 3,697 ft / 1,127 m 60.60° 58.38° Asphalt 0 ft / 0 m 0 ft / 0 m
24 82 ft / 25 m 3,697 ft / 1,127 m 240.61° 238.39° Asphalt 0 ft / 0 m 0 ft / 0 m

Map

Weather


0- 5 10 15 20 25 30 35+ Temperature / ° C

Clouds and Precipitation
Forecast for 2017-12-16 00:00 UTC. Updated 43 minutes ago

Ground ~20,000 ft ~40,000 ft Winds

METAR

DTTG 160000Z 29008KT 9999 BKN030 12/04 Q1014 NOSIG

TAF

Not found
Warning: Do not use this data for real-world aviation or navigation. No guarantee of current accuracy is given.